createdAt,value
2023-01-28T00:00:10.364Z,12.15
2023-01-28T00:02:38.858Z,12.77
2023-01-28T00:05:07.593Z,13.88
2023-01-28T00:07:36.937Z,13.63
2023-01-28T00:10:05.676Z,14.32
2023-01-28T00:12:34.014Z,12.95
2023-01-28T00:15:02.266Z,13.48
2023-01-28T00:17:31.329Z,12.75
2023-01-28T00:19:59.984Z,12.98
2023-01-28T00:22:28.231Z,12.57
2023-01-28T00:24:56.747Z,13.68
2023-01-28T00:27:25.458Z,13.00
2023-01-28T00:29:54.604Z,12.85
2023-01-28T00:32:23.114Z,13.07
2023-01-28T00:34:54.733Z,13.80
2023-01-28T00:37:23.358Z,13.90
2023-01-28T00:39:52.043Z,14.73
2023-01-28T00:42:20.609Z,14.20
2023-01-28T00:44:49.424Z,14.98
2023-01-28T00:47:17.513Z,13.38
2023-01-28T00:49:47.075Z,13.80
2023-01-28T00:52:15.699Z,13.68
2023-01-28T00:54:44.348Z,13.45
2023-01-28T00:57:13.388Z,14.80
2023-01-28T00:59:42.024Z,13.65
2023-01-28T01:02:13.278Z,13.77
2023-01-28T01:04:42.218Z,13.52
2023-01-28T01:07:10.857Z,12.98
2023-01-28T01:09:39.107Z,13.23
2023-01-28T01:12:07.992Z,13.75
2023-01-28T01:14:36.596Z,13.05
2023-01-28T01:17:05.179Z,12.40
2023-01-28T01:19:33.739Z,12.50
2023-01-28T01:22:02.891Z,13.45
2023-01-28T01:24:34.653Z,12.88
2023-01-28T01:27:02.982Z,13.80
2023-01-28T01:29:31.689Z,14.32
2023-01-28T01:32:00.949Z,13.13
2023-01-28T01:34:29.610Z,13.90
2023-01-28T01:36:59.938Z,14.15
2023-01-28T01:39:28.119Z,14.55
2023-01-28T01:41:56.363Z,14.07
2023-01-28T01:44:49.358Z,14.80
2023-01-28T01:47:19.563Z,14.18
2023-01-28T01:49:48.239Z,14.30
2023-01-28T01:52:21.640Z,14.43
2023-01-28T01:54:55.881Z,14.77
2023-01-28T01:57:30.620Z,14.02
2023-01-28T02:00:06.897Z,13.48
2023-01-28T02:02:47.955Z,14.93
2023-01-28T02:05:20.673Z,14.02
2023-01-28T02:07:51.313Z,16.20
2023-01-28T02:10:19.668Z,14.73
2023-01-28T02:12:57.148Z,14.77
2023-01-28T02:15:30.549Z,13.38
2023-01-28T02:17:59.351Z,13.50
2023-01-28T02:20:56.347Z,13.90
2023-01-28T02:23:39.453Z,13.90
2023-01-28T02:26:23.599Z,13.48
2023-01-28T02:29:35.959Z,13.07
2023-01-28T02:32:26.402Z,13.70
2023-01-28T02:35:04.452Z,13.93
2023-01-28T02:37:46.845Z,14.60
2023-01-28T02:40:21.383Z,15.68
2023-01-28T02:42:49.937Z,14.45
2023-01-28T02:45:25.663Z,15.13
2023-01-28T02:50:40.299Z,13.85
2023-01-28T02:53:39.500Z,15.30
2023-01-28T02:56:11.092Z,14.25
2023-01-28T02:59:01.278Z,15.30
2023-01-28T03:01:39.958Z,14.73
2023-01-28T03:04:18.238Z,15.02
2023-01-28T03:06:51.181Z,14.35
2023-01-28T03:09:27.692Z,14.35
2023-01-28T03:12:31.412Z,15.40
2023-01-28T03:15:21.776Z,16.33
2023-01-28T03:18:27.542Z,15.05
2023-01-28T03:21:27.106Z,14.80
2023-01-28T03:24:20.167Z,15.07
2023-01-28T03:27:13.672Z,14.38
2023-01-28T03:30:04.138Z,14.45
2023-01-28T03:32:54.175Z,14.25
2023-01-28T03:35:44.168Z,13.80
2023-01-28T03:38:19.092Z,14.32
2023-01-28T03:41:14.052Z,15.13
2023-01-28T03:43:43.094Z,14.23
2023-01-28T03:46:11.964Z,14.02
2023-01-28T03:48:41.296Z,14.43
2023-01-28T03:51:13.127Z,14.55
2023-01-28T03:53:41.769Z,13.48
2023-01-28T03:56:09.892Z,12.77
2023-01-28T03:58:53.330Z,14.00
2023-01-28T04:01:22.413Z,12.57
2023-01-28T04:03:50.951Z,13.00
2023-01-28T04:06:25.047Z,14.15
2023-01-28T04:09:12.988Z,13.77
2023-01-28T04:11:56.410Z,14.05
2023-01-28T04:14:33.734Z,13.98
2023-01-28T04:17:11.343Z,13.85
2023-01-28T04:19:40.777Z,13.18
2023-01-28T04:22:11.819Z,13.07
2023-01-28T04:24:42.107Z,12.00
2023-01-28T04:27:10.977Z,13.65
2023-01-28T04:29:39.737Z,13.25
2023-01-28T04:32:28.589Z,13.07
2023-01-28T04:35:21.825Z,14.05
2023-01-28T04:37:59.506Z,12.85
2023-01-28T04:40:33.432Z,12.88
2023-01-28T04:43:14.187Z,11.90
2023-01-28T04:46:20.730Z,12.60
2023-01-28T04:49:24.484Z,12.32
2023-01-28T04:52:22.635Z,12.75
2023-01-28T04:55:10.752Z,13.20
2023-01-28T04:57:39.195Z,12.80
2023-01-28T05:00:09.914Z,12.88
2023-01-28T05:02:38.633Z,12.90
2023-01-28T05:05:09.763Z,14.13
2023-01-28T05:08:04.032Z,14.13
2023-01-28T05:10:32.933Z,14.30
2023-01-28T05:13:01.810Z,14.38
2023-01-28T05:15:30.475Z,15.48
2023-01-28T05:17:58.924Z,15.75
2023-01-28T05:20:30.167Z,15.00
2023-01-28T05:22:59.167Z,14.68
2023-01-28T05:25:37.773Z,15.50
2023-01-28T05:28:05.968Z,14.65
2023-01-28T05:30:34.643Z,15.48
2023-01-28T05:33:03.235Z,16.35
2023-01-28T05:35:32.753Z,15.23
2023-01-28T05:38:01.569Z,16.30
2023-01-28T05:40:30.408Z,15.63
2023-01-28T05:42:59.130Z,16.65
2023-01-28T05:45:40.735Z,16.17
2023-01-28T05:48:15.488Z,15.02
2023-01-28T05:50:51.583Z,16.63
2023-01-28T05:53:31.172Z,16.10
2023-01-28T05:56:00.050Z,16.58
2023-01-28T05:58:32.400Z,17.70
2023-01-28T06:01:04.612Z,15.15
2023-01-28T06:08:38.206Z,16.15
2023-01-28T06:11:07.044Z,16.27
2023-01-28T06:13:37.005Z,13.75
2023-01-28T06:16:23.889Z,14.90
2023-01-28T06:19:12.403Z,14.77
2023-01-28T06:21:41.232Z,15.50
2023-01-28T06:24:10.164Z,15.95
2023-01-28T06:26:38.900Z,15.15
2023-01-28T06:29:08.063Z,14.75
2023-01-28T06:31:36.776Z,14.90
2023-01-28T06:34:05.258Z,15.40
2023-01-28T06:36:37.821Z,15.95
2023-01-28T06:39:06.456Z,15.77
2023-01-28T06:41:34.740Z,17.58
2023-01-28T06:44:03.143Z,15.68
2023-01-28T06:46:31.372Z,15.50
2023-01-28T06:48:59.792Z,15.48
2023-01-28T06:51:28.440Z,17.27
2023-01-28T06:53:57.008Z,15.18
2023-01-28T06:56:25.557Z,17.10
2023-01-28T06:58:53.574Z,14.18
2023-01-28T07:01:21.622Z,15.55
2023-01-28T07:03:50.042Z,14.30
2023-01-28T07:06:18.498Z,14.77
2023-01-28T07:08:47.142Z,16.63
2023-01-28T07:11:16.782Z,15.52
2023-01-28T07:13:45.783Z,13.98
2023-01-28T07:16:14.338Z,14.88
2023-01-28T07:18:42.600Z,14.07
2023-01-28T07:21:10.913Z,14.45
2023-01-28T07:23:40.753Z,15.13
2023-01-28T18:11:41.113Z,13.23
2023-01-28T18:14:09.593Z,14.65
2023-01-28T18:16:38.532Z,13.73
2023-01-28T18:19:07.221Z,13.73
2023-01-28T18:21:52.065Z,14.95
2023-01-28T18:24:24.928Z,15.35
2023-01-28T18:26:59.338Z,15.30
2023-01-28T18:29:29.867Z,15.93
2023-01-28T18:31:59.946Z,15.07
2023-01-28T18:34:31.277Z,15.32
2023-01-28T18:36:59.924Z,17.10
2023-01-28T18:39:31.711Z,15.52
2023-01-28T18:41:59.920Z,16.40
2023-01-28T18:44:38.259Z,16.02
2023-01-28T18:47:06.710Z,15.10
2023-01-28T18:49:34.930Z,13.57
2023-01-28T18:52:03.270Z,13.27
2023-01-28T18:54:32.504Z,14.88
2023-01-28T18:57:01.604Z,14.35
2023-01-28T18:59:29.961Z,16.02
2023-01-28T19:01:58.284Z,15.63
2023-01-28T19:04:26.513Z,17.15
2023-01-28T19:06:58.197Z,15.50
2023-01-28T19:09:26.573Z,15.60
2023-01-28T19:11:54.800Z,17.00
2023-01-28T19:14:22.989Z,15.98
2023-01-28T19:16:51.256Z,18.30
2023-01-28T19:19:19.584Z,17.00
2023-01-28T19:21:47.788Z,16.30
2023-01-28T19:24:16.176Z,18.00
2023-01-28T19:26:45.153Z,15.63
2023-01-28T19:29:15.765Z,17.20
2023-01-28T19:31:44.871Z,17.35
2023-01-28T19:34:13.399Z,16.73
2023-01-28T19:36:42.719Z,15.68
2023-01-28T19:39:12.927Z,15.18
2023-01-28T19:41:41.105Z,16.58
2023-01-28T19:44:10.746Z,16.85
2023-01-28T19:46:40.514Z,17.38
2023-01-28T19:49:10.011Z,17.30
2023-01-28T19:51:38.431Z,18.40
2023-01-28T19:54:06.507Z,19.75
2023-01-28T19:56:36.580Z,19.02
2023-01-28T19:59:05.417Z,19.27
2023-01-28T20:01:33.847Z,19.05
2023-01-28T20:04:03.038Z,19.02
2023-01-28T20:06:32.253Z,17.55
2023-01-28T20:09:07.067Z,16.65
2023-01-28T20:11:35.900Z,21.52
2023-01-28T20:14:04.150Z,17.67
2023-01-28T20:16:34.623Z,19.92
2023-01-28T20:19:05.576Z,18.40
2023-01-28T20:21:35.869Z,25.63
2023-01-28T20:24:05.193Z,20.98
2023-01-28T20:26:36.676Z,21.67
2023-01-28T20:29:10.865Z,21.25
2023-01-28T20:31:41.268Z,20.77
2023-01-28T20:34:15.755Z,14.80
2023-01-28T20:36:44.635Z,12.57
2023-01-28T20:39:13.900Z,11.10
2023-01-28T20:41:42.301Z,11.27
2023-01-28T20:44:10.665Z,11.32
2023-01-28T20:46:39.300Z,12.50
2023-01-28T20:49:07.517Z,12.77
2023-01-28T20:51:36.663Z,15.82
2023-01-28T20:54:05.389Z,20.90
2023-01-28T20:56:33.775Z,22.73
2023-01-28T20:59:06.873Z,18.25
2023-01-28T21:01:36.131Z,18.50
2023-01-28T21:04:05.917Z,17.05
2023-01-28T21:06:34.767Z,15.52
2023-01-28T21:09:04.555Z,14.68
2023-01-28T21:11:33.047Z,13.93
2023-01-28T21:14:01.455Z,14.13
2023-01-28T21:16:30.103Z,15.35
2023-01-28T21:18:58.804Z,14.70
2023-01-28T21:21:28.965Z,13.45
2023-01-28T21:24:01.402Z,13.65
2023-01-28T21:26:29.856Z,14.48
2023-01-28T21:28:58.066Z,12.35
2023-01-28T21:31:27.603Z,13.52
2023-01-28T21:33:58.760Z,14.02
2023-01-28T21:36:27.884Z,15.32
2023-01-28T21:39:01.147Z,14.18
2023-01-28T21:41:29.898Z,16.98
2023-01-28T21:43:59.888Z,18.33
2023-01-28T21:46:31.533Z,20.80
2023-01-28T21:49:06.064Z,25.27
2023-01-28T21:51:46.572Z,25.55
2023-01-28T21:54:17.361Z,23.98
2023-01-28T21:56:50.080Z,22.58
2023-01-28T21:59:28.977Z,21.77
2023-01-28T22:02:10.143Z,20.23
2023-01-28T22:04:43.827Z,20.40
2023-01-28T22:07:14.252Z,21.40
2023-01-28T22:09:43.178Z,20.02
2023-01-28T22:12:12.474Z,21.42
2023-01-28T22:14:41.569Z,19.25
2023-01-28T22:17:12.592Z,20.90
2023-01-28T22:19:41.533Z,18.90
2023-01-28T22:22:10.182Z,21.60
2023-01-28T22:24:38.453Z,19.42
2023-01-28T22:27:07.168Z,20.73
2023-01-28T22:29:35.393Z,23.02
2023-01-28T22:32:05.283Z,22.58
2023-01-28T22:34:33.569Z,19.85
2023-01-28T22:37:03.248Z,16.20
2023-01-28T22:39:31.854Z,17.20
2023-01-28T22:42:00.869Z,16.55
2023-01-28T22:44:29.564Z,17.77
2023-01-28T22:46:58.154Z,17.00
2023-01-28T22:49:27.368Z,17.40
2023-01-28T22:51:55.974Z,17.55
2023-01-28T22:54:24.730Z,17.70
2023-01-28T22:56:53.070Z,18.88
2023-01-28T22:59:21.821Z,16.38
2023-01-28T23:01:50.522Z,16.55
2023-01-28T23:04:19.169Z,16.77
2023-01-28T23:06:48.326Z,16.25
2023-01-28T23:09:16.634Z,16.35
2023-01-28T23:11:44.839Z,16.90
2023-01-28T23:14:31.805Z,18.48
2023-01-28T23:17:18.984Z,16.83
2023-01-28T23:20:06.578Z,15.45
2023-01-28T23:22:54.087Z,16.42
2023-01-28T23:25:24.290Z,18.83
2023-01-28T23:27:52.492Z,20.80
2023-01-28T23:30:25.589Z,17.38
2023-01-28T23:32:57.642Z,16.45
2023-01-28T23:35:26.952Z,17.67
2023-01-28T23:37:56.098Z,19.02
2023-01-28T23:40:24.958Z,17.80
2023-01-28T23:42:55.301Z,19.48
2023-01-28T23:45:23.733Z,18.65
2023-01-28T23:47:53.158Z,18.80
2023-01-28T23:50:21.426Z,18.75
2023-01-28T23:52:49.928Z,17.40
2023-01-28T23:55:18.190Z,17.08
2023-01-28T23:57:46.469Z,16.25
